Casa Branca, Brazil
Current Conditions -  °F | °C
As of 12:00 PM on Saturday 25 Oct 2014 (Local Time) from SBYS Reporting Station
Broken Clouds Broken Clouds  
Wind Chill: 72°   Ceiling: 3000
Heat Index: 72°   Visibility: 6mi
Dew Point: 64°   Wind: 0mph
Humidity: 78%   Direction: NA
Pressure: 30.06"   Gusts: NA
Location:  21.78°S, 47.08°W
Report Text: SBYS 251400Z 00000KT 9999 FEW020 BKN030 BKN100 22/18 Q1018
Loading
Personal Weather Stations






























Interactive Weather Map
Tropical Storm Tracking
New forecast layout! Learn more

10-Day Weather Forecast

Advertisements
Track Severe Weather on mobile